N390TC KJFK-KEWR
Flight info
| Callsign | N390TC |
|---|---|
| Flight time | 0h 16m |
| Altitude | VFR |
| Route | SVD VFN |
| Aircraft | PA28/L-VGD/C |
Departure
| Time | 2026-05-04 14:13 |
|---|---|
| Airport | John F. Kennedy International Airport (KJFK) |
Arrival
| Time | 2026-05-04 14:29 |
|---|---|
| Airport | Newark Liberty International Airport (KEWR) |
| Time | Latitude | Longitude | Altitude | Speed | Heading |
|---|---|---|---|---|---|
| 2026-05-04 13:49 | 40.64916 | -73.81097 | 18 ft | 0 kts | 212° |
| 2026-05-04 13:49 | 40.64915 | -73.81105 | 18 ft | 0 kts | 310° |
| 2026-05-04 13:52 | 40.64916 | -73.81097 | 18 ft | 0 kts | 212° |
| 2026-05-04 13:53 | 40.64915 | -73.81105 | 18 ft | 0 kts | 303° |
| 2026-05-04 13:55 | 40.64922 | -73.81106 | 18 ft | 5 kts | 9° |
| 2026-05-04 13:56 | 40.64943 | -73.81135 | 17 ft | 4 kts | 277° |
| 2026-05-04 13:56 | 40.64944 | -73.81149 | 17 ft | 0 kts | 281° |
| 2026-05-04 13:58 | 40.64903 | -73.81206 | 19 ft | 2 kts | 161° |
| 2026-05-04 13:58 | 40.64860 | -73.81116 | 19 ft | 11 kts | 122° |
| 2026-05-04 13:58 | 40.64817 | -73.81024 | 19 ft | 12 kts | 122° |
| 2026-05-04 13:59 | 40.64771 | -73.80929 | 21 ft | 12 kts | 122° |
| 2026-05-04 13:59 | 40.64724 | -73.80826 | 20 ft | 15 kts | 121° |
| 2026-05-04 13:59 | 40.64599 | -73.80548 | 16 ft | 18 kts | 120° |
| 2026-05-04 14:00 | 40.64535 | -73.80404 | 14 ft | 18 kts | 120° |
| 2026-05-04 14:00 | 40.64417 | -73.80143 | 15 ft | 15 kts | 121° |
| 2026-05-04 14:00 | 40.64366 | -73.80032 | 18 ft | 13 kts | 121° |
| 2026-05-04 14:01 | 40.64325 | -73.79944 | 20 ft | 10 kts | 125° |
| 2026-05-04 14:01 | 40.64278 | -73.79874 | 20 ft | 11 kts | 136° |
| 2026-05-04 14:01 | 40.64195 | -73.79761 | 21 ft | 0 kts | 120° |
| 2026-05-04 14:04 | 40.64176 | -73.79737 | 21 ft | 8 kts | 191° |
| 2026-05-04 14:04 | 40.64129 | -73.79801 | 20 ft | 10 kts | 180° |
| 2026-05-04 14:05 | 40.64042 | -73.79628 | 17 ft | 15 kts | 116° |
| 2026-05-04 14:05 | 40.63989 | -73.79506 | 17 ft | 15 kts | 126° |
| 2026-05-04 14:05 | 40.63931 | -73.79392 | 16 ft | 15 kts | 121° |
| 2026-05-04 14:06 | 40.63874 | -73.79269 | 15 ft | 15 kts | 122° |
| 2026-05-04 14:06 | 40.63826 | -73.79160 | 17 ft | 13 kts | 119° |
| 2026-05-04 14:06 | 40.63782 | -73.79065 | 17 ft | 12 kts | 121° |
| 2026-05-04 14:06 | 40.63743 | -73.78975 | 18 ft | 10 kts | 121° |
| 2026-05-04 14:07 | 40.63711 | -73.78907 | 20 ft | 8 kts | 122° |
| 2026-05-04 14:07 | 40.63679 | -73.78838 | 22 ft | 11 kts | 122° |
| 2026-05-04 14:07 | 40.63633 | -73.78733 | 21 ft | 15 kts | 122° |
| 2026-05-04 14:07 | 40.63574 | -73.78607 | 22 ft | 16 kts | 121° |
| 2026-05-04 14:08 | 40.63524 | -73.78493 | 22 ft | 11 kts | 117° |
| 2026-05-04 14:08 | 40.63510 | -73.78460 | 21 ft | 0 kts | 120° |
| 2026-05-04 14:08 | 40.63508 | -73.78457 | 21 ft | 3 kts | 120° |
| 2026-05-04 14:09 | 40.63426 | -73.78282 | 20 ft | 14 kts | 120° |
| 2026-05-04 14:09 | 40.63378 | -73.78171 | 20 ft | 14 kts | 119° |
| 2026-05-04 14:10 | 40.63330 | -73.77924 | 20 ft | 13 kts | 76° |
| 2026-05-04 14:10 | 40.63370 | -73.77827 | 21 ft | 11 kts | 43° |
| 2026-05-04 14:10 | 40.63434 | -73.77769 | 21 ft | 12 kts | 30° |
| 2026-05-04 14:10 | 40.63519 | -73.77700 | 16 ft | 16 kts | 31° |
| 2026-05-04 14:11 | 40.63616 | -73.77624 | 15 ft | 16 kts | 30° |
| 2026-05-04 14:11 | 40.63807 | -73.77474 | 13 ft | 14 kts | 29° |
| 2026-05-04 14:11 | 40.63879 | -73.77415 | 15 ft | 11 kts | 31° |
| 2026-05-04 14:12 | 40.63943 | -73.77365 | 16 ft | 12 kts | 33° |
| 2026-05-04 14:12 | 40.63958 | -73.77280 | 15 ft | 13 kts | 155° |
| 2026-05-04 14:12 | 40.63453 | -73.77575 | 114 ft | 67 kts | 213° |
| 2026-05-04 14:13 | 40.63004 | -73.77863 | 300 ft | 78 kts | 211° |
| 2026-05-04 14:13 | 40.62491 | -73.78185 | 521 ft | 86 kts | 209° |
| 2026-05-04 14:13 | 40.62016 | -73.78675 | 804 ft | 86 kts | 228° |
| 2026-05-04 14:13 | 40.61707 | -73.79343 | 978 ft | 87 kts | 243° |
| 2026-05-04 14:14 | 40.61493 | -73.80119 | 920 ft | 95 kts | 247° |
| 2026-05-04 14:14 | 40.60996 | -73.81818 | 796 ft | 105 kts | 243° |
| 2026-05-04 14:14 | 40.60721 | -73.82684 | 851 ft | 102 kts | 246° |
| 2026-05-04 14:15 | 40.60210 | -73.84453 | 828 ft | 105 kts | 248° |
| 2026-05-04 14:15 | 40.59871 | -73.86328 | 940 ft | 99 kts | 258° |
| 2026-05-04 14:16 | 40.59694 | -73.88168 | 1011 ft | 99 kts | 257° |
| 2026-05-04 14:16 | 40.59602 | -73.89058 | 1105 ft | 93 kts | 259° |
| 2026-05-04 14:17 | 40.59775 | -73.90645 | 1085 ft | 92 kts | 268° |
| 2026-05-04 14:17 | 40.59829 | -73.91522 | 881 ft | 102 kts | 266° |
| 2026-05-04 14:17 | 40.59926 | -73.93479 | 899 ft | 107 kts | 271° |
| 2026-05-04 14:18 | 40.60030 | -73.94447 | 949 ft | 106 kts | 275° |
| 2026-05-04 14:18 | 40.60235 | -73.96295 | 1004 ft | 102 kts | 272° |
| 2026-05-04 14:19 | 40.60349 | -73.98110 | 1013 ft | 94 kts | 269° |
| 2026-05-04 14:19 | 40.60412 | -73.98956 | 972 ft | 93 kts | 268° |
| 2026-05-04 14:19 | 40.60442 | -73.99796 | 958 ft | 91 kts | 264° |
| 2026-05-04 14:19 | 40.60459 | -74.00632 | 965 ft | 95 kts | 266° |
| 2026-05-04 14:20 | 40.60466 | -74.01515 | 971 ft | 99 kts | 266° |
| 2026-05-04 14:20 | 40.60501 | -74.02443 | 913 ft | 105 kts | 268° |
| 2026-05-04 14:20 | 40.60579 | -74.03451 | 940 ft | 113 kts | 272° |
| 2026-05-04 14:21 | 40.61917 | -74.04501 | 1269 ft | 129 kts | 342° |
| 2026-05-04 14:21 | 40.62825 | -74.04525 | 1467 ft | 130 kts | 359° |
| 2026-05-04 14:21 | 40.63684 | -74.04269 | 1516 ft | 127 kts | 9° |
| 2026-05-04 14:21 | 40.64542 | -74.03944 | 1471 ft | 130 kts | 9° |
| 2026-05-04 14:22 | 40.65420 | -74.03593 | 1426 ft | 134 kts | 9° |
| 2026-05-04 14:22 | 40.66318 | -74.03256 | 1411 ft | 133 kts | 8° |
| 2026-05-04 14:22 | 40.67208 | -74.02977 | 1418 ft | 130 kts | 7° |
| 2026-05-04 14:22 | 40.68075 | -74.02700 | 1417 ft | 128 kts | 7° |
| 2026-05-04 14:23 | 40.69828 | -74.02159 | 1481 ft | 126 kts | 359° |
| 2026-05-04 14:23 | 40.70611 | -74.02248 | 1671 ft | 111 kts | 340° |
| 2026-05-04 14:23 | 40.71202 | -74.02696 | 1662 ft | 94 kts | 280° |
| 2026-05-04 14:24 | 40.71264 | -74.03550 | 1623 ft | 93 kts | 264° |
| 2026-05-04 14:24 | 40.71282 | -74.04376 | 1639 ft | 91 kts | 265° |
| 2026-05-04 14:24 | 40.71260 | -74.05173 | 1712 ft | 82 kts | 247° |
| 2026-05-04 14:24 | 40.70968 | -74.05798 | 1751 ft | 80 kts | 233° |
| 2026-05-04 14:25 | 40.70644 | -74.06408 | 1738 ft | 83 kts | 240° |
| 2026-05-04 14:25 | 40.70605 | -74.07935 | 1691 ft | 83 kts | 268° |
| 2026-05-04 14:25 | 40.70697 | -74.08658 | 1719 ft | 77 kts | 270° |
| 2026-05-04 14:26 | 40.70780 | -74.09348 | 1698 ft | 79 kts | 272° |
| 2026-05-04 14:26 | 40.70893 | -74.10053 | 1647 ft | 80 kts | 270° |
| 2026-05-04 14:26 | 40.71029 | -74.10780 | 1590 ft | 84 kts | 283° |
| 2026-05-04 14:26 | 40.71287 | -74.11465 | 1534 ft | 82 kts | 289° |
| 2026-05-04 14:27 | 40.71611 | -74.12088 | 1483 ft | 83 kts | 296° |
| 2026-05-04 14:27 | 40.71963 | -74.12700 | 1445 ft | 82 kts | 293° |
| 2026-05-04 14:27 | 40.72226 | -74.13300 | 1493 ft | 64 kts | 276° |
| 2026-05-04 14:27 | 40.72225 | -74.13904 | 1272 ft | 69 kts | 252° |
| 2026-05-04 14:28 | 40.72086 | -74.14441 | 1099 ft | 65 kts | 233° |
| 2026-05-04 14:28 | 40.71764 | -74.14839 | 896 ft | 61 kts | 214° |
| 2026-05-04 14:28 | 40.71527 | -74.14990 | 790 ft | 54 kts | 212° |
| 2026-05-04 14:28 | 40.71186 | -74.15222 | 621 ft | 57 kts | 209° |
| 2026-05-04 14:29 | 40.70340 | -74.15785 | 202 ft | 53 kts | 208° |
| 2026-05-04 14:29 | 40.69836 | -74.16107 | 53 ft | 46 kts | 206° |
| 2026-05-04 14:30 | 40.69560 | -74.16281 | 21 ft | 42 kts | 207° |
| 2026-05-04 14:30 | 40.69297 | -74.16446 | 19 ft | 56 kts | 205° |
| 2026-05-04 14:30 | 40.68518 | -74.16938 | 529 ft | 59 kts | 206° |
| 2026-05-04 14:31 | 40.68054 | -74.16889 | 725 ft | 81 kts | 153° |
| 2026-05-04 14:31 | 40.67263 | -74.15576 | 1114 ft | 108 kts | 100° |
| 2026-05-04 14:32 | 40.68384 | -74.14063 | 1180 ft | 119 kts | 29° |
| 2026-05-04 14:32 | 40.69101 | -74.13524 | 1274 ft | 116 kts | 22° |
| 2026-05-04 14:32 | 40.69788 | -74.13069 | 1446 ft | 98 kts | 19° |
| 2026-05-04 14:32 | 40.70421 | -74.12685 | 1391 ft | 103 kts | 16° |
| 2026-05-04 14:33 | 40.71077 | -74.12288 | 1371 ft | 102 kts | 20° |
| 2026-05-04 14:33 | 40.71661 | -74.12347 | 1213 ft | 79 kts | 297° |
| 2026-05-04 14:33 | 40.71958 | -74.12911 | 1171 ft | 67 kts | 284° |
| 2026-05-04 14:33 | 40.72131 | -74.13484 | 1087 ft | 63 kts | 259° |
| 2026-05-04 14:34 | 40.71946 | -74.14044 | 927 ft | 69 kts | 238° |
| 2026-05-04 14:34 | 40.71656 | -74.14567 | 733 ft | 70 kts | 230° |
| 2026-05-04 14:34 | 40.71322 | -74.15000 | 504 ft | 66 kts | 224° |
| 2026-05-04 14:34 | 40.70945 | -74.15357 | 323 ft | 67 kts | 215° |
| 2026-05-04 14:35 | 40.70572 | -74.15643 | 237 ft | 58 kts | 207° |
| 2026-05-04 14:35 | 40.70217 | -74.15862 | 139 ft | 54 kts | 209° |
| 2026-05-04 14:35 | 40.69888 | -74.16072 | 73 ft | 51 kts | 208° |
| 2026-05-04 14:35 | 40.69577 | -74.16270 | 17 ft | 44 kts | 205° |
| 2026-05-04 14:36 | 40.69282 | -74.16453 | 31 ft | 62 kts | 206° |
| 2026-05-04 14:36 | 40.68886 | -74.16698 | 293 ft | 65 kts | 206° |
| 2026-05-04 14:36 | 40.68470 | -74.16965 | 525 ft | 67 kts | 209° |
| 2026-05-04 14:36 | 40.68024 | -74.17020 | 762 ft | 83 kts | 150° |
| 2026-05-04 14:37 | 40.67833 | -74.16260 | 1042 ft | 96 kts | 98° |
| 2026-05-04 14:37 | 40.67779 | -74.15335 | 1016 ft | 103 kts | 104° |
| 2026-05-04 14:37 | 40.67799 | -74.14404 | 1200 ft | 104 kts | 63° |
| 2026-05-04 14:37 | 40.68375 | -74.13738 | 1185 ft | 116 kts | 27° |
| 2026-05-04 14:38 | 40.69087 | -74.13189 | 1165 ft | 123 kts | 26° |
| 2026-05-04 14:38 | 40.69786 | -74.12646 | 1388 ft | 101 kts | 27° |
| 2026-05-04 14:38 | 40.70350 | -74.12186 | 1393 ft | 95 kts | 22° |
| 2026-05-04 14:38 | 40.70981 | -74.11828 | 1236 ft | 92 kts | 345° |
| 2026-05-04 14:39 | 40.71390 | -74.12273 | 1110 ft | 77 kts | 290° |
| 2026-05-04 14:39 | 40.71658 | -74.12860 | 1075 ft | 70 kts | 288° |
| 2026-05-04 14:39 | 40.71872 | -74.13409 | 1043 ft | 66 kts | 282° |
| 2026-05-04 14:40 | 40.71823 | -74.14457 | 851 ft | 62 kts | 232° |
| 2026-05-04 14:40 | 40.71498 | -74.14859 | 676 ft | 60 kts | 222° |
| 2026-05-04 14:40 | 40.71171 | -74.15189 | 488 ft | 60 kts | 221° |
| 2026-05-04 14:40 | 40.70819 | -74.15486 | 349 ft | 60 kts | 210° |
| 2026-05-04 14:41 | 40.70457 | -74.15727 | 235 ft | 57 kts | 207° |
| 2026-05-04 14:41 | 40.70108 | -74.15940 | 120 ft | 54 kts | 207° |
| 2026-05-04 14:41 | 40.69502 | -74.16321 | 17 ft | 50 kts | 205° |
| 2026-05-04 14:42 | 40.68695 | -74.16827 | 437 ft | 69 kts | 209° |
| 2026-05-04 14:42 | 40.68306 | -74.17121 | 680 ft | 70 kts | 212° |
| 2026-05-04 14:42 | 40.67862 | -74.17435 | 904 ft | 77 kts | 211° |
| 2026-05-04 14:43 | 40.67347 | -74.17314 | 1148 ft | 94 kts | 141° |
| 2026-05-04 14:43 | 40.66994 | -74.16547 | 1409 ft | 100 kts | 129° |
| 2026-05-04 14:43 | 40.66681 | -74.15697 | 1467 ft | 108 kts | 127° |
| 2026-05-04 14:43 | 40.66326 | -74.14814 | 1526 ft | 111 kts | 133° |
| 2026-05-04 14:44 | 40.65932 | -74.13961 | 1505 ft | 109 kts | 133° |
| 2026-05-04 14:44 | 40.65521 | -74.13047 | 1573 ft | 120 kts | 130° |
| 2026-05-04 14:44 | 40.65146 | -74.12113 | 1957 ft | 112 kts | 128° |
| 2026-05-04 14:44 | 40.64810 | -74.11190 | 2207 ft | 113 kts | 128° |
| 2026-05-04 14:45 | 40.64452 | -74.10276 | 2108 ft | 112 kts | 134° |
| 2026-05-04 14:45 | 40.64019 | -74.09425 | 1995 ft | 112 kts | 136° |
| 2026-05-04 14:45 | 40.63570 | -74.08604 | 1834 ft | 109 kts | 140° |
| 2026-05-04 14:45 | 40.63113 | -74.07805 | 1703 ft | 107 kts | 139° |
| 2026-05-04 14:46 | 40.62705 | -74.07011 | 1671 ft | 103 kts | 136° |
| 2026-05-04 14:46 | 40.62230 | -74.06315 | 1450 ft | 101 kts | 149° |
| 2026-05-04 14:46 | 40.61692 | -74.05715 | 1250 ft | 101 kts | 155° |
| 2026-05-04 14:46 | 40.61127 | -74.05224 | 1084 ft | 93 kts | 159° |
| 2026-05-04 14:47 | 40.60556 | -74.04832 | 947 ft | 95 kts | 165° |
| 2026-05-04 14:47 | 40.59949 | -74.04533 | 944 ft | 92 kts | 171° |
| 2026-05-04 14:47 | 40.59340 | -74.04289 | 913 ft | 92 kts | 173° |
| 2026-05-04 14:47 | 40.58767 | -74.03926 | 872 ft | 93 kts | 156° |
| 2026-05-04 14:48 | 40.58285 | -74.03297 | 708 ft | 102 kts | 136° |
| 2026-05-04 14:48 | 40.57881 | -74.02520 | 581 ft | 105 kts | 127° |
| 2026-05-04 14:48 | 40.57526 | -74.01672 | 475 ft | 107 kts | 120° |
| 2026-05-04 14:48 | 40.57203 | -74.00770 | 408 ft | 109 kts | 119° |